sensor_id;sensor_type;location;lat;lon;timestamp;P1;durP1;ratioP1;P2;durP2;ratioP2
64710;SDS011;51139;45.626;6.850;2023-09-12T00:02:11;6.40;;;5.10;;
64710;SDS011;51139;45.626;6.850;2023-09-12T00:04:36;7.82;;;4.40;;
64710;SDS011;51139;45.626;6.850;2023-09-12T00:07:02;5.80;;;4.30;;
64710;SDS011;51139;45.626;6.850;2023-09-12T00:09:28;6.05;;;4.60;;
64710;SDS011;51139;45.626;6.850;2023-09-12T00:11:53;6.55;;;4.18;;
64710;SDS011;51139;45.626;6.850;2023-09-12T00:14:19;5.30;;;4.45;;
64710;SDS011;51139;45.626;6.850;2023-09-12T00:16:45;6.30;;;4.35;;
64710;SDS011;51139;45.626;6.850;2023-09-12T00:19:11;5.60;;;4.80;;
64710;SDS011;51139;45.626;6.850;2023-09-12T00:21:37;5.68;;;4.35;;
64710;SDS011;51139;45.626;6.850;2023-09-12T00:24:02;5.57;;;4.25;;
64710;SDS011;51139;45.626;6.850;2023-09-12T00:26:28;5.78;;;4.63;;
64710;SDS011;51139;45.626;6.850;2023-09-12T00:28:55;5.60;;;4.45;;
64710;SDS011;51139;45.626;6.850;2023-09-12T00:31:21;6.13;;;4.30;;
64710;SDS011;51139;45.626;6.850;2023-09-12T00:33:46;6.25;;;4.60;;
64710;SDS011;51139;45.626;6.850;2023-09-12T00:36:12;5.72;;;4.30;;
64710;SDS011;51139;45.626;6.850;2023-09-12T00:38:37;6.72;;;4.38;;
64710;SDS011;51139;45.626;6.850;2023-09-12T00:41:02;4.78;;;4.13;;
64710;SDS011;51139;45.626;6.850;2023-09-12T00:43:28;5.32;;;4.07;;
64710;SDS011;51139;45.626;6.850;2023-09-12T00:45:53;5.30;;;4.22;;
64710;SDS011;51139;45.626;6.850;2023-09-12T00:48:19;4.90;;;4.05;;
64710;SDS011;51139;45.626;6.850;2023-09-12T00:50:47;4.55;;;3.78;;
64710;SDS011;51139;45.626;6.850;2023-09-12T00:53:14;6.13;;;3.80;;
64710;SDS011;51139;45.626;6.850;2023-09-12T00:55:42;5.38;;;4.30;;
64710;SDS011;51139;45.626;6.850;2023-09-12T00:58:14;6.70;;;4.25;;
64710;SDS011;51139;45.626;6.850;2023-09-12T01:00:40;5.78;;;3.90;;
64710;SDS011;51139;45.626;6.850;2023-09-12T01:03:06;6.72;;;4.53;;
64710;SDS011;51139;45.626;6.850;2023-09-12T01:05:32;5.80;;;4.35;;
64710;SDS011;51139;45.626;6.850;2023-09-12T01:07:59;5.80;;;4.30;;
64710;SDS011;51139;45.626;6.850;2023-09-12T01:10:25;5.32;;;4.60;;
64710;SDS011;51139;45.626;6.850;2023-09-12T01:12:51;5.57;;;4.20;;
64710;SDS011;51139;45.626;6.850;2023-09-12T01:15:17;6.68;;;4.30;;
64710;SDS011;51139;45.626;6.850;2023-09-12T01:17:43;5.72;;;3.97;;
64710;SDS011;51139;45.626;6.850;2023-09-12T01:20:18;6.60;;;3.80;;
64710;SDS011;51139;45.626;6.850;2023-09-12T01:23:08;6.10;;;4.13;;
64710;SDS011;51139;45.626;6.850;2023-09-12T01:28:29;5.35;;;4.20;;
64710;SDS011;51139;45.626;6.850;2023-09-12T01:31:00;5.45;;;4.25;;
64710;SDS011;51139;45.626;6.850;2023-09-12T01:33:26;5.25;;;4.15;;
64710;SDS011;51139;45.626;6.850;2023-09-12T01:35:52;5.07;;;3.95;;
64710;SDS011;51139;45.626;6.850;2023-09-12T01:38:17;6.18;;;4.18;;
64710;SDS011;51139;45.626;6.850;2023-09-12T01:40:44;6.20;;;4.53;;
64710;SDS011;51139;45.626;6.850;2023-09-12T01:43:15;5.22;;;4.35;;
64710;SDS011;51139;45.626;6.850;2023-09-12T01:45:42;4.85;;;4.00;;
64710;SDS011;51139;45.626;6.850;2023-09-12T01:48:09;4.90;;;4.00;;
64710;SDS011;51139;45.626;6.850;2023-09-12T01:50:36;4.70;;;3.83;;
64710;SDS011;51139;45.626;6.850;2023-09-12T01:53:02;4.47;;;3.67;;
64710;SDS011;51139;45.626;6.850;2023-09-12T01:55:28;5.72;;;3.80;;
64710;SDS011;51139;45.626;6.850;2023-09-12T01:57:54;5.50;;;3.80;;
64710;SDS011;51139;45.626;6.850;2023-09-12T02:00:22;8.35;;;4.00;;
64710;SDS011;51139;45.626;6.850;2023-09-12T02:02:48;5.30;;;3.90;;
64710;SDS011;51139;45.626;6.850;2023-09-12T02:05:15;6.28;;;3.67;;
64710;SDS011;51139;45.626;6.850;2023-09-12T02:07:45;5.25;;;4.00;;
64710;SDS011;51139;45.626;6.850;2023-09-12T02:10:11;5.65;;;3.97;;
64710;SDS011;51139;45.626;6.850;2023-09-12T02:12:37;3.88;;;3.28;;
64710;SDS011;51139;45.626;6.850;2023-09-12T02:15:03;6.40;;;4.15;;
64710;SDS011;51139;45.626;6.850;2023-09-12T02:17:29;5.05;;;4.15;;
64710;SDS011;51139;45.626;6.850;2023-09-12T02:19:54;4.63;;;3.72;;
64710;SDS011;51139;45.626;6.850;2023-09-12T02:22:20;7.70;;;4.55;;
64710;SDS011;51139;45.626;6.850;2023-09-12T02:24:45;5.60;;;4.07;;
64710;SDS011;51139;45.626;6.850;2023-09-12T02:27:10;4.80;;;4.00;;
64710;SDS011;51139;45.626;6.850;2023-09-12T02:29:38;5.55;;;3.75;;
64710;SDS011;51139;45.626;6.850;2023-09-12T02:32:04;5.60;;;3.80;;
64710;SDS011;51139;45.626;6.850;2023-09-12T02:34:30;4.47;;;3.60;;
64710;SDS011;51139;45.626;6.850;2023-09-12T02:36:56;4.28;;;3.50;;
64710;SDS011;51139;45.626;6.850;2023-09-12T02:39:21;4.35;;;3.80;;
64710;SDS011;51139;45.626;6.850;2023-09-12T02:41:46;4.60;;;3.70;;
64710;SDS011;51139;45.626;6.850;2023-09-12T02:44:12;5.07;;;3.72;;
64710;SDS011;51139;45.626;6.850;2023-09-12T02:46:37;5.07;;;3.70;;
64710;SDS011;51139;45.626;6.850;2023-09-12T02:49:03;4.18;;;3.60;;
64710;SDS011;51139;45.626;6.850;2023-09-12T02:51:28;5.00;;;3.85;;
64710;SDS011;51139;45.626;6.850;2023-09-12T02:53:54;5.30;;;3.88;;
64710;SDS011;51139;45.626;6.850;2023-09-12T02:56:19;7.47;;;3.80;;
64710;SDS011;51139;45.626;6.850;2023-09-12T02:58:48;6.63;;;3.75;;
64710;SDS011;51139;45.626;6.850;2023-09-12T03:01:18;4.45;;;3.38;;
64710;SDS011;51139;45.626;6.850;2023-09-12T03:03:48;9.05;;;3.63;;
64710;SDS011;51139;45.626;6.850;2023-09-12T03:06:14;6.37;;;4.00;;
64710;SDS011;51139;45.626;6.850;2023-09-12T03:08:41;5.38;;;3.60;;
64710;SDS011;51139;45.626;6.850;2023-09-12T03:11:07;5.30;;;3.67;;
64710;SDS011;51139;45.626;6.850;2023-09-12T03:13:39;4.28;;;3.25;;
64710;SDS011;51139;45.626;6.850;2023-09-12T03:16:09;4.35;;;3.40;;
64710;SDS011;51139;45.626;6.850;2023-09-12T03:18:38;5.90;;;3.78;;
64710;SDS011;51139;45.626;6.850;2023-09-12T03:21:03;4.85;;;3.60;;
64710;SDS011;51139;45.626;6.850;2023-09-12T03:23:29;5.15;;;4.00;;
64710;SDS011;51139;45.626;6.850;2023-09-12T03:25:55;4.22;;;3.58;;
64710;SDS011;51139;45.626;6.850;2023-09-12T03:28:20;5.55;;;3.70;;
64710;SDS011;51139;45.626;6.850;2023-09-12T03:30:46;5.88;;;3.58;;
64710;SDS011;51139;45.626;6.850;2023-09-12T03:33:11;5.10;;;3.88;;
64710;SDS011;51139;45.626;6.850;2023-09-12T03:35:37;4.35;;;3.30;;
64710;SDS011;51139;45.626;6.850;2023-09-12T03:38:02;4.57;;;3.88;;
64710;SDS011;51139;45.626;6.850;2023-09-12T03:40:28;4.45;;;3.63;;
64710;SDS011;51139;45.626;6.850;2023-09-12T03:42:55;5.05;;;3.50;;
64710;SDS011;51139;45.626;6.850;2023-09-12T03:45:21;5.55;;;3.38;;
64710;SDS011;51139;45.626;6.850;2023-09-12T03:47:46;4.57;;;3.88;;
64710;SDS011;51139;45.626;6.850;2023-09-12T03:50:12;6.25;;;3.30;;
64710;SDS011;51139;45.626;6.850;2023-09-12T03:52:38;5.07;;;3.80;;
64710;SDS011;51139;45.626;6.850;2023-09-12T03:55:04;5.25;;;3.80;;
64710;SDS011;51139;45.626;6.850;2023-09-12T03:57:29;4.28;;;3.38;;
64710;SDS011;51139;45.626;6.850;2023-09-12T03:59:55;4.57;;;3.40;;
64710;SDS011;51139;45.626;6.850;2023-09-12T04:02:20;4.18;;;2.90;;
64710;SDS011;51139;45.626;6.850;2023-09-12T04:04:45;6.38;;;3.50;;
64710;SDS011;51139;45.626;6.850;2023-09-12T04:07:11;3.80;;;3.03;;
64710;SDS011;51139;45.626;6.850;2023-09-12T04:09:36;4.00;;;2.90;;
64710;SDS011;51139;45.626;6.850;2023-09-12T04:12:02;5.20;;;3.50;;
64710;SDS011;51139;45.626;6.850;2023-09-12T04:14:27;3.50;;;2.80;;
64710;SDS011;51139;45.626;6.850;2023-09-12T04:16:53;5.32;;;3.42;;
64710;SDS011;51139;45.626;6.850;2023-09-12T04:19:18;4.97;;;3.42;;
64710;SDS011;51139;45.626;6.850;2023-09-12T04:21:44;3.92;;;3.20;;
64710;SDS011;51139;45.626;6.850;2023-09-12T04:24:09;3.58;;;2.85;;
64710;SDS011;51139;45.626;6.850;2023-09-12T04:26:34;4.68;;;3.00;;
64710;SDS011;51139;45.626;6.850;2023-09-12T04:29:00;4.85;;;3.17;;
64710;SDS011;51139;45.626;6.850;2023-09-12T04:31:25;4.38;;;3.10;;
64710;SDS011;51139;45.626;6.850;2023-09-12T04:33:51;6.28;;;3.78;;
64710;SDS011;51139;45.626;6.850;2023-09-12T04:36:17;4.88;;;3.60;;
64710;SDS011;51139;45.626;6.850;2023-09-12T04:38:43;5.25;;;3.53;;
64710;SDS011;51139;45.626;6.850;2023-09-12T04:41:08;4.60;;;3.58;;
64710;SDS011;51139;45.626;6.850;2023-09-12T04:43:34;5.75;;;4.03;;
64710;SDS011;51139;45.626;6.850;2023-09-12T04:46:00;5.00;;;3.35;;
64710;SDS011;51139;45.626;6.850;2023-09-12T04:48:26;5.10;;;3.67;;
64710;SDS011;51139;45.626;6.850;2023-09-12T04:50:51;5.18;;;3.67;;
64710;SDS011;51139;45.626;6.850;2023-09-12T04:53:16;5.45;;;3.67;;
64710;SDS011;51139;45.626;6.850;2023-09-12T04:55:42;7.13;;;3.40;;
64710;SDS011;51139;45.626;6.850;2023-09-12T04:58:07;8.30;;;3.70;;
64710;SDS011;51139;45.626;6.850;2023-09-12T05:00:33;4.88;;;3.47;;
64710;SDS011;51139;45.626;6.850;2023-09-12T05:02:59;6.88;;;3.40;;
64710;SDS011;51139;45.626;6.850;2023-09-12T05:05:25;8.05;;;3.60;;
64710;SDS011;51139;45.626;6.850;2023-09-12T05:07:50;10.02;;;3.97;;
64710;SDS011;51139;45.626;6.850;2023-09-12T05:10:18;5.32;;;3.40;;
64710;SDS011;51139;45.626;6.850;2023-09-12T05:12:44;8.68;;;3.85;;
64710;SDS011;51139;45.626;6.850;2023-09-12T05:15:10;9.60;;;4.25;;
64710;SDS011;51139;45.626;6.850;2023-09-12T05:17:35;8.57;;;3.88;;
64710;SDS011;51139;45.626;6.850;2023-09-12T05:20:01;7.32;;;4.03;;
64710;SDS011;51139;45.626;6.850;2023-09-12T05:22:28;5.45;;;3.95;;
64710;SDS011;51139;45.626;6.850;2023-09-12T05:24:54;9.45;;;4.28;;
64710;SDS011;51139;45.626;6.850;2023-09-12T05:27:19;8.57;;;4.18;;
64710;SDS011;51139;45.626;6.850;2023-09-12T05:29:45;9.13;;;4.68;;
64710;SDS011;51139;45.626;6.850;2023-09-12T05:32:10;17.55;;;5.50;;
64710;SDS011;51139;45.626;6.850;2023-09-12T05:34:36;12.10;;;4.38;;
64710;SDS011;51139;45.626;6.850;2023-09-12T05:37:01;11.98;;;5.47;;
64710;SDS011;51139;45.626;6.850;2023-09-12T05:39:27;22.90;;;7.00;;
64710;SDS011;51139;45.626;6.850;2023-09-12T05:41:53;60.15;;;14.13;;
64710;SDS011;51139;45.626;6.850;2023-09-12T05:44:18;23.67;;;7.68;;
64710;SDS011;51139;45.626;6.850;2023-09-12T05:46:47;11.75;;;5.55;;
64710;SDS011;51139;45.626;6.850;2023-09-12T05:49:13;36.03;;;9.05;;
64710;SDS011;51139;45.626;6.850;2023-09-12T05:51:40;17.17;;;6.22;;
64710;SDS011;51139;45.626;6.850;2023-09-12T05:54:06;6.28;;;3.42;;
64710;SDS011;51139;45.626;6.850;2023-09-12T05:56:31;4.45;;;3.25;;
64710;SDS011;51139;45.626;6.850;2023-09-12T16:07:24;6.53;;;2.17;;
64710;SDS011;51139;45.626;6.850;2023-09-12T16:09:50;2.85;;;2.10;;
64710;SDS011;51139;45.626;6.850;2023-09-12T16:12:15;7.03;;;2.63;;
64710;SDS011;51139;45.626;6.850;2023-09-12T16:14:41;5.93;;;2.10;;
64710;SDS011;51139;45.626;6.850;2023-09-12T16:17:06;6.80;;;2.30;;
64710;SDS011;51139;45.626;6.850;2023-09-12T16:19:31;3.70;;;2.17;;
64710;SDS011;51139;45.626;6.850;2023-09-12T16:21:58;5.03;;;1.80;;
64710;SDS011;51139;45.626;6.850;2023-09-12T16:24:23;4.20;;;2.45;;
64710;SDS011;51139;45.626;6.850;2023-09-12T16:26:49;4.60;;;2.42;;
64710;SDS011;51139;45.626;6.850;2023-09-12T16:29:14;7.15;;;2.80;;
64710;SDS011;51139;45.626;6.850;2023-09-12T16:31:40;5.00;;;2.50;;
64710;SDS011;51139;45.626;6.850;2023-09-12T16:34:05;5.32;;;2.45;;
64710;SDS011;51139;45.626;6.850;2023-09-12T16:36:31;5.72;;;2.30;;
64710;SDS011;51139;45.626;6.850;2023-09-12T16:38:56;4.82;;;2.05;;
64710;SDS011;51139;45.626;6.850;2023-09-12T16:41:22;5.57;;;2.70;;
64710;SDS011;51139;45.626;6.850;2023-09-12T16:43:47;5.70;;;2.28;;
64710;SDS011;51139;45.626;6.850;2023-09-12T16:46:13;4.63;;;2.55;;
64710;SDS011;51139;45.626;6.850;2023-09-12T16:48:38;3.90;;;1.92;;
64710;SDS011;51139;45.626;6.850;2023-09-12T16:51:04;4.57;;;2.20;;
64710;SDS011;51139;45.626;6.850;2023-09-12T16:53:29;5.30;;;2.40;;
64710;SDS011;51139;45.626;6.850;2023-09-12T16:55:54;4.60;;;2.10;;
64710;SDS011;51139;45.626;6.850;2023-09-12T16:58:23;7.20;;;2.65;;
64710;SDS011;51139;45.626;6.850;2023-09-12T17:00:48;3.63;;;2.20;;
64710;SDS011;51139;45.626;6.850;2023-09-12T17:03:14;6.95;;;2.65;;
64710;SDS011;51139;45.626;6.850;2023-09-12T17:05:39;4.68;;;2.47;;
64710;SDS011;51139;45.626;6.850;2023-09-12T17:08:04;8.30;;;2.60;;
64710;SDS011;51139;45.626;6.850;2023-09-12T17:10:30;5.70;;;2.35;;
64710;SDS011;51139;45.626;6.850;2023-09-12T17:12:55;5.10;;;1.92;;
64710;SDS011;51139;45.626;6.850;2023-09-12T17:15:21;5.13;;;2.00;;
64710;SDS011;51139;45.626;6.850;2023-09-12T17:17:46;3.88;;;2.25;;
64710;SDS011;51139;45.626;6.850;2023-09-12T17:20:12;2.80;;;2.00;;
64710;SDS011;51139;45.626;6.850;2023-09-12T17:22:40;5.65;;;2.30;;
64710;SDS011;51139;45.626;6.850;2023-09-12T17:25:05;3.90;;;1.83;;
64710;SDS011;51139;45.626;6.850;2023-09-12T17:27:31;5.45;;;2.22;;
64710;SDS011;51139;45.626;6.850;2023-09-12T17:29:57;4.43;;;2.30;;
64710;SDS011;51139;45.626;6.850;2023-09-12T17:32:22;6.22;;;2.10;;
64710;SDS011;51139;45.626;6.850;2023-09-12T17:34:48;5.60;;;2.05;;
64710;SDS011;51139;45.626;6.850;2023-09-12T17:37:17;3.53;;;1.98;;
64710;SDS011;51139;45.626;6.850;2023-09-12T17:39:43;5.50;;;2.50;;
64710;SDS011;51139;45.626;6.850;2023-09-12T17:42:08;4.60;;;2.45;;
64710;SDS011;51139;45.626;6.850;2023-09-12T17:44:34;6.28;;;2.35;;
64710;SDS011;51139;45.626;6.850;2023-09-12T17:46:59;3.35;;;1.92;;
64710;SDS011;51139;45.626;6.850;2023-09-12T17:49:25;6.63;;;2.38;;
64710;SDS011;51139;45.626;6.850;2023-09-12T17:51:51;6.03;;;2.30;;
64710;SDS011;51139;45.626;6.850;2023-09-12T17:54:17;5.35;;;2.33;;
64710;SDS011;51139;45.626;6.850;2023-09-12T17:56:42;5.63;;;2.25;;
64710;SDS011;51139;45.626;6.850;2023-09-12T17:59:08;4.53;;;2.42;;
64710;SDS011;51139;45.626;6.850;2023-09-12T18:01:33;4.95;;;3.50;;
64710;SDS011;51139;45.626;6.850;2023-09-12T18:03:58;5.82;;;3.30;;
64710;SDS011;51139;45.626;6.850;2023-09-12T18:06:24;8.07;;;3.95;;
64710;SDS011;51139;45.626;6.850;2023-09-12T18:08:51;5.25;;;3.42;;
64710;SDS011;51139;45.626;6.850;2023-09-12T18:11:17;8.18;;;3.90;;
64710;SDS011;51139;45.626;6.850;2023-09-12T18:13:42;6.53;;;3.15;;
64710;SDS011;51139;45.626;6.850;2023-09-12T18:16:11;5.15;;;3.10;;
64710;SDS011;51139;45.626;6.850;2023-09-12T18:18:38;6.53;;;3.10;;
64710;SDS011;51139;45.626;6.850;2023-09-12T18:21:04;4.68;;;2.88;;
64710;SDS011;51139;45.626;6.850;2023-09-12T18:23:30;5.30;;;2.90;;
64710;SDS011;51139;45.626;6.850;2023-09-12T18:25:58;6.65;;;3.00;;
64710;SDS011;51139;45.626;6.850;2023-09-12T18:28:43;7.15;;;3.22;;
64710;SDS011;51139;45.626;6.850;2023-09-12T18:31:14;4.55;;;2.78;;
64710;SDS011;51139;45.626;6.850;2023-09-12T18:33:41;6.03;;;3.45;;
64710;SDS011;51139;45.626;6.850;2023-09-12T18:36:08;5.22;;;2.75;;
64710;SDS011;51139;45.626;6.850;2023-09-12T18:38:35;6.25;;;2.90;;
64710;SDS011;51139;45.626;6.850;2023-09-12T18:41:01;6.00;;;3.30;;
64710;SDS011;51139;45.626;6.850;2023-09-12T18:43:27;5.15;;;3.25;;
64710;SDS011;51139;45.626;6.850;2023-09-12T18:45:52;7.43;;;3.58;;
64710;SDS011;51139;45.626;6.850;2023-09-12T18:48:18;8.15;;;3.13;;
64710;SDS011;51139;45.626;6.850;2023-09-12T18:50:45;4.88;;;3.55;;
64710;SDS011;51139;45.626;6.850;2023-09-12T18:53:13;5.43;;;3.35;;
64710;SDS011;51139;45.626;6.850;2023-09-12T18:55:43;6.65;;;3.28;;
64710;SDS011;51139;45.626;6.850;2023-09-12T18:58:09;5.50;;;3.20;;
64710;SDS011;51139;45.626;6.850;2023-09-12T19:00:36;5.00;;;3.50;;
64710;SDS011;51139;45.626;6.850;2023-09-12T19:03:02;6.20;;;3.60;;
64710;SDS011;51139;45.626;6.850;2023-09-12T19:05:31;5.50;;;3.00;;
64710;SDS011;51139;45.626;6.850;2023-09-12T19:07:57;7.35;;;2.72;;
64710;SDS011;51139;45.626;6.850;2023-09-12T19:10:22;5.13;;;3.00;;
64710;SDS011;51139;45.626;6.850;2023-09-12T19:12:48;6.40;;;3.20;;
64710;SDS011;51139;45.626;6.850;2023-09-12T19:15:14;5.50;;;2.88;;
64710;SDS011;51139;45.626;6.850;2023-09-12T19:17:41;6.28;;;3.10;;
64710;SDS011;51139;45.626;6.850;2023-09-12T19:20:06;6.38;;;3.00;;
64710;SDS011;51139;45.626;6.850;2023-09-12T19:22:33;4.40;;;2.70;;
64710;SDS011;51139;45.626;6.850;2023-09-12T19:24:58;4.00;;;3.10;;
64710;SDS011;51139;45.626;6.850;2023-09-12T19:27:24;5.38;;;3.17;;
64710;SDS011;51139;45.626;6.850;2023-09-12T19:29:50;5.32;;;3.15;;
64710;SDS011;51139;45.626;6.850;2023-09-12T19:32:22;6.20;;;3.38;;
64710;SDS011;51139;45.626;6.850;2023-09-12T19:34:47;5.93;;;3.13;;
64710;SDS011;51139;45.626;6.850;2023-09-12T19:37:13;4.97;;;2.90;;
64710;SDS011;51139;45.626;6.850;2023-09-12T19:39:39;6.38;;;2.97;;
64710;SDS011;51139;45.626;6.850;2023-09-12T19:42:05;4.68;;;3.05;;
64710;SDS011;51139;45.626;6.850;2023-09-12T19:44:31;6.38;;;3.10;;
64710;SDS011;51139;45.626;6.850;2023-09-12T19:46:56;6.88;;;3.10;;
64710;SDS011;51139;45.626;6.850;2023-09-12T19:49:22;4.78;;;2.97;;
64710;SDS011;51139;45.626;6.850;2023-09-12T19:51:48;5.80;;;3.60;;
64710;SDS011;51139;45.626;6.850;2023-09-12T19:54:13;7.13;;;3.63;;
64710;SDS011;51139;45.626;6.850;2023-09-12T19:56:39;5.70;;;3.50;;
64710;SDS011;51139;45.626;6.850;2023-09-12T19:59:04;7.68;;;3.25;;
64710;SDS011;51139;45.626;6.850;2023-09-12T20:01:30;6.13;;;3.72;;
64710;SDS011;51139;45.626;6.850;2023-09-12T20:03:55;7.45;;;3.50;;
64710;SDS011;51139;45.626;6.850;2023-09-12T20:06:21;7.95;;;3.70;;
64710;SDS011;51139;45.626;6.850;2023-09-12T20:08:46;7.72;;;3.80;;
64710;SDS011;51139;45.626;6.850;2023-09-12T20:11:12;5.97;;;3.40;;
64710;SDS011;51139;45.626;6.850;2023-09-12T20:13:38;6.70;;;3.40;;
64710;SDS011;51139;45.626;6.850;2023-09-12T20:16:03;5.30;;;3.67;;
64710;SDS011;51139;45.626;6.850;2023-09-12T20:18:29;6.38;;;3.72;;
64710;SDS011;51139;45.626;6.850;2023-09-12T20:20:55;6.07;;;3.97;;
64710;SDS011;51139;45.626;6.850;2023-09-12T20:23:24;4.50;;;3.15;;
64710;SDS011;51139;45.626;6.850;2023-09-12T20:25:50;4.45;;;3.20;;
64710;SDS011;51139;45.626;6.850;2023-09-12T20:28:18;5.80;;;3.65;;
64710;SDS011;51139;45.626;6.850;2023-09-12T20:30:44;5.20;;;3.53;;
64710;SDS011;51139;45.626;6.850;2023-09-12T20:33:10;6.25;;;3.05;;
64710;SDS011;51139;45.626;6.850;2023-09-12T20:35:35;6.32;;;3.38;;
64710;SDS011;51139;45.626;6.850;2023-09-12T20:38:01;7.93;;;3.65;;
64710;SDS011;51139;45.626;6.850;2023-09-12T20:40:28;5.82;;;3.42;;
64710;SDS011;51139;45.626;6.850;2023-09-12T20:42:54;6.70;;;3.25;;
64710;SDS011;51139;45.626;6.850;2023-09-12T20:45:20;4.97;;;3.97;;
64710;SDS011;51139;45.626;6.850;2023-09-12T20:47:45;5.38;;;3.30;;
64710;SDS011;51139;45.626;6.850;2023-09-12T20:50:11;7.22;;;3.40;;
64710;SDS011;51139;45.626;6.850;2023-09-12T20:52:39;5.07;;;3.38;;
64710;SDS011;51139;45.626;6.850;2023-09-12T20:55:05;7.20;;;2.97;;
64710;SDS011;51139;45.626;6.850;2023-09-12T20:57:31;5.82;;;3.50;;
64710;SDS011;51139;45.626;6.850;2023-09-12T20:59:58;5.88;;;3.22;;
64710;SDS011;51139;45.626;6.850;2023-09-12T21:02:24;6.82;;;3.40;;
64710;SDS011;51139;45.626;6.850;2023-09-12T21:04:49;4.90;;;3.15;;
64710;SDS011;51139;45.626;6.850;2023-09-12T21:07:15;4.70;;;3.00;;
64710;SDS011;51139;45.626;6.850;2023-09-12T21:09:41;7.00;;;3.10;;
64710;SDS011;51139;45.626;6.850;2023-09-12T21:12:06;4.57;;;3.40;;
64710;SDS011;51139;45.626;6.850;2023-09-12T21:14:31;5.57;;;3.00;;
64710;SDS011;51139;45.626;6.850;2023-09-12T21:16:57;5.38;;;3.22;;
64710;SDS011;51139;45.626;6.850;2023-09-12T21:19:22;6.20;;;3.58;;
64710;SDS011;51139;45.626;6.850;2023-09-12T21:21:48;6.13;;;3.50;;
64710;SDS011;51139;45.626;6.850;2023-09-12T21:24:13;5.10;;;3.25;;
64710;SDS011;51139;45.626;6.850;2023-09-12T21:26:39;6.05;;;3.50;;
64710;SDS011;51139;45.626;6.850;2023-09-12T21:29:05;6.10;;;3.38;;
64710;SDS011;51139;45.626;6.850;2023-09-12T21:31:30;5.18;;;3.08;;
64710;SDS011;51139;45.626;6.850;2023-09-12T21:33:56;5.90;;;3.13;;
64710;SDS011;51139;45.626;6.850;2023-09-12T21:36:21;4.90;;;3.20;;
64710;SDS011;51139;45.626;6.850;2023-09-12T21:38:47;5.68;;;3.22;;
64710;SDS011;51139;45.626;6.850;2023-09-12T21:41:12;5.88;;;3.03;;
64710;SDS011;51139;45.626;6.850;2023-09-12T21:43:37;4.82;;;2.83;;
64710;SDS011;51139;45.626;6.850;2023-09-12T21:46:03;5.50;;;2.67;;
64710;SDS011;51139;45.626;6.850;2023-09-12T21:48:28;5.13;;;2.75;;
64710;SDS011;51139;45.626;6.850;2023-09-12T21:50:54;4.90;;;3.05;;
64710;SDS011;51139;45.626;6.850;2023-09-12T21:53:19;4.70;;;3.00;;
64710;SDS011;51139;45.626;6.850;2023-09-12T21:55:45;6.85;;;2.70;;
64710;SDS011;51139;45.626;6.850;2023-09-12T21:58:11;4.93;;;2.88;;
64710;SDS011;51139;45.626;6.850;2023-09-12T22:00:36;4.68;;;2.80;;
64710;SDS011;51139;45.626;6.850;2023-09-12T22:03:02;6.85;;;3.17;;
64710;SDS011;51139;45.626;6.850;2023-09-12T22:05:28;6.50;;;2.97;;
64710;SDS011;51139;45.626;6.850;2023-09-12T22:07:53;7.25;;;2.92;;
64710;SDS011;51139;45.626;6.850;2023-09-12T22:10:19;3.90;;;2.63;;
64710;SDS011;51139;45.626;6.850;2023-09-12T22:12:45;3.75;;;2.70;;
64710;SDS011;51139;45.626;6.850;2023-09-12T22:15:10;5.47;;;3.17;;
64710;SDS011;51139;45.626;6.850;2023-09-12T22:17:36;5.72;;;3.50;;
64710;SDS011;51139;45.626;6.850;2023-09-12T22:20:02;6.10;;;2.80;;
64710;SDS011;51139;45.626;6.850;2023-09-12T22:22:29;5.57;;;3.20;;
64710;SDS011;51139;45.626;6.850;2023-09-12T22:24:55;4.15;;;2.65;;
64710;SDS011;51139;45.626;6.850;2023-09-12T22:27:22;6.25;;;3.28;;
64710;SDS011;51139;45.626;6.850;2023-09-12T22:29:47;4.00;;;2.60;;
64710;SDS011;51139;45.626;6.850;2023-09-12T22:32:13;5.68;;;2.78;;
64710;SDS011;51139;45.626;6.850;2023-09-12T22:34:41;7.30;;;3.03;;
64710;SDS011;51139;45.626;6.850;2023-09-12T22:37:07;3.72;;;2.75;;
64710;SDS011;51139;45.626;6.850;2023-09-12T22:39:33;6.50;;;2.80;;
64710;SDS011;51139;45.626;6.850;2023-09-12T22:41:58;5.95;;;2.70;;
64710;SDS011;51139;45.626;6.850;2023-09-12T22:44:24;5.60;;;2.63;;
64710;SDS011;51139;45.626;6.850;2023-09-12T22:46:49;3.88;;;2.60;;
64710;SDS011;51139;45.626;6.850;2023-09-12T22:49:14;4.65;;;2.38;;
64710;SDS011;51139;45.626;6.850;2023-09-12T22:51:40;5.10;;;2.92;;
64710;SDS011;51139;45.626;6.850;2023-09-12T22:54:05;4.45;;;2.85;;
64710;SDS011;51139;45.626;6.850;2023-09-12T22:56:31;3.72;;;2.50;;
64710;SDS011;51139;45.626;6.850;2023-09-12T22:58:57;4.95;;;2.50;;
64710;SDS011;51139;45.626;6.850;2023-09-12T23:01:22;4.93;;;2.70;;
64710;SDS011;51139;45.626;6.850;2023-09-12T23:03:47;4.60;;;2.53;;
64710;SDS011;51139;45.626;6.850;2023-09-12T23:06:13;4.68;;;2.60;;
64710;SDS011;51139;45.626;6.850;2023-09-12T23:08:38;6.53;;;2.67;;
64710;SDS011;51139;45.626;6.850;2023-09-12T23:11:04;5.35;;;3.10;;
64710;SDS011;51139;45.626;6.850;2023-09-12T23:13:29;4.63;;;2.45;;
64710;SDS011;51139;45.626;6.850;2023-09-12T23:15:55;3.60;;;2.50;;
64710;SDS011;51139;45.626;6.850;2023-09-12T23:18:23;4.47;;;2.35;;
64710;SDS011;51139;45.626;6.850;2023-09-12T23:20:49;4.60;;;2.15;;
64710;SDS011;51139;45.626;6.850;2023-09-12T23:23:15;4.05;;;2.15;;
64710;SDS011;51139;45.626;6.850;2023-09-12T23:25:41;5.43;;;2.30;;
64710;SDS011;51139;45.626;6.850;2023-09-12T23:28:08;4.57;;;2.40;;
64710;SDS011;51139;45.626;6.850;2023-09-12T23:30:36;3.47;;;2.25;;
64710;SDS011;51139;45.626;6.850;2023-09-12T23:33:03;4.38;;;2.33;;
64710;SDS011;51139;45.626;6.850;2023-09-12T23:35:28;4.65;;;2.50;;
64710;SDS011;51139;45.626;6.850;2023-09-12T23:37:54;3.83;;;2.13;;
64710;SDS011;51139;45.626;6.850;2023-09-12T23:40:19;4.47;;;2.67;;
64710;SDS011;51139;45.626;6.850;2023-09-12T23:42:46;5.63;;;2.50;;
64710;SDS011;51139;45.626;6.850;2023-09-12T23:45:11;3.10;;;2.30;;
64710;SDS011;51139;45.626;6.850;2023-09-12T23:47:37;4.68;;;2.50;;
64710;SDS011;51139;45.626;6.850;2023-09-12T23:50:03;5.30;;;2.63;;
64710;SDS011;51139;45.626;6.850;2023-09-12T23:52:28;3.50;;;2.30;;
64710;SDS011;51139;45.626;6.850;2023-09-12T23:54:54;4.13;;;2.60;;
64710;SDS011;51139;45.626;6.850;2023-09-12T23:57:19;4.05;;;2.10;;
64710;SDS011;51139;45.626;6.850;2023-09-12T23:59:46;6.25;;;2.47;;
